sensor_id;sensor_type;location;lat;lon;timestamp;temperature;humidity
20803;DHT22;10562;-33.856;151.182;2023-09-19T00:01:41;30.50;72.90
20803;DHT22;10562;-33.856;151.182;2023-09-19T00:04:12;30.70;71.90
20803;DHT22;10562;-33.856;151.182;2023-09-19T00:06:43;30.80;69.00
20803;DHT22;10562;-33.856;151.182;2023-09-19T00:09:15;31.00;68.40
20803;DHT22;10562;-33.856;151.182;2023-09-19T00:11:48;31.20;66.20
20803;DHT22;10562;-33.856;151.182;2023-09-19T00:14:20;31.30;65.80
20803;DHT22;10562;-33.856;151.182;2023-09-19T00:16:52;31.60;64.90
20803;DHT22;10562;-33.856;151.182;2023-09-19T00:19:23;31.70;62.70
20803;DHT22;10562;-33.856;151.182;2023-09-19T00:21:54;31.80;61.60
20803;DHT22;10562;-33.856;151.182;2023-09-19T00:24:24;32.00;61.00
20803;DHT22;10562;-33.856;151.182;2023-09-19T00:26:58;31.80;57.80
20803;DHT22;10562;-33.856;151.182;2023-09-19T00:29:29;32.00;57.70
20803;DHT22;10562;-33.856;151.182;2023-09-19T00:32:00;32.10;56.80
20803;DHT22;10562;-33.856;151.182;2023-09-19T00:34:32;32.10;56.30
20803;DHT22;10562;-33.856;151.182;2023-09-19T00:37:03;32.10;56.60
20803;DHT22;10562;-33.856;151.182;2023-09-19T00:39:34;32.30;54.60
20803;DHT22;10562;-33.856;151.182;2023-09-19T00:42:07;32.30;54.30
20803;DHT22;10562;-33.856;151.182;2023-09-19T00:44:38;32.40;55.30
20803;DHT22;10562;-33.856;151.182;2023-09-19T00:47:08;32.40;53.60
20803;DHT22;10562;-33.856;151.182;2023-09-19T00:49:43;32.50;54.40
20803;DHT22;10562;-33.856;151.182;2023-09-19T00:52:17;32.60;54.00
20803;DHT22;10562;-33.856;151.182;2023-09-19T00:54:48;32.70;53.70
20803;DHT22;10562;-33.856;151.182;2023-09-19T00:57:22;32.60;52.90
20803;DHT22;10562;-33.856;151.182;2023-09-19T00:59:55;32.80;53.10
20803;DHT22;10562;-33.856;151.182;2023-09-19T01:02:28;32.90;54.00
20803;DHT22;10562;-33.856;151.182;2023-09-19T01:04:59;33.00;52.90
20803;DHT22;10562;-33.856;151.182;2023-09-19T01:07:32;33.00;52.80
20803;DHT22;10562;-33.856;151.182;2023-09-19T01:10:04;33.10;52.20
20803;DHT22;10562;-33.856;151.182;2023-09-19T01:12:47;33.00;52.10
20803;DHT22;10562;-33.856;151.182;2023-09-19T01:15:28;33.10;52.10
20803;DHT22;10562;-33.856;151.182;2023-09-19T01:18:07;33.20;51.70
20803;DHT22;10562;-33.856;151.182;2023-09-19T01:20:45;33.30;52.10
20803;DHT22;10562;-33.856;151.182;2023-09-19T01:23:23;33.40;50.50
20803;DHT22;10562;-33.856;151.182;2023-09-19T01:26:17;33.40;51.40
20803;DHT22;10562;-33.856;151.182;2023-09-19T01:29:16;33.30;49.70
20803;DHT22;10562;-33.856;151.182;2023-09-19T01:31:52;33.30;49.20
20803;DHT22;10562;-33.856;151.182;2023-09-19T01:34:24;33.40;49.50
20803;DHT22;10562;-33.856;151.182;2023-09-19T01:36:55;33.50;49.50
20803;DHT22;10562;-33.856;151.182;2023-09-19T01:39:26;33.50;50.00
20803;DHT22;10562;-33.856;151.182;2023-09-19T01:42:01;33.50;49.70
20803;DHT22;10562;-33.856;151.182;2023-09-19T01:44:43;33.60;49.00
20803;DHT22;10562;-33.856;151.182;2023-09-19T01:47:23;33.80;49.10
20803;DHT22;10562;-33.856;151.182;2023-09-19T01:50:02;33.80;49.10
20803;DHT22;10562;-33.856;151.182;2023-09-19T01:52:42;34.00;48.20
20803;DHT22;10562;-33.856;151.182;2023-09-19T01:55:17;34.10;47.60
20803;DHT22;10562;-33.856;151.182;2023-09-19T01:57:54;34.30;48.50
20803;DHT22;10562;-33.856;151.182;2023-09-19T02:00:30;34.50;48.80
20803;DHT22;10562;-33.856;151.182;2023-09-19T02:03:05;34.60;47.70
20803;DHT22;10562;-33.856;151.182;2023-09-19T02:05:36;34.50;47.60
20803;DHT22;10562;-33.856;151.182;2023-09-19T02:08:08;34.60;48.40
20803;DHT22;10562;-33.856;151.182;2023-09-19T02:10:38;34.80;47.80
20803;DHT22;10562;-33.856;151.182;2023-09-19T02:13:09;34.70;46.70
20803;DHT22;10562;-33.856;151.182;2023-09-19T02:15:40;34.80;48.00
20803;DHT22;10562;-33.856;151.182;2023-09-19T02:18:14;34.90;46.70
20803;DHT22;10562;-33.856;151.182;2023-09-19T02:20:44;35.00;46.80
20803;DHT22;10562;-33.856;151.182;2023-09-19T02:23:16;35.10;46.10
20803;DHT22;10562;-33.856;151.182;2023-09-19T02:25:53;35.10;44.20
20803;DHT22;10562;-33.856;151.182;2023-09-19T02:28:24;35.20;46.30
20803;DHT22;10562;-33.856;151.182;2023-09-19T02:30:57;35.30;46.00
20803;DHT22;10562;-33.856;151.182;2023-09-19T02:33:30;35.40;44.90
20803;DHT22;10562;-33.856;151.182;2023-09-19T02:36:02;35.20;44.00
20803;DHT22;10562;-33.856;151.182;2023-09-19T02:38:33;35.30;44.50
20803;DHT22;10562;-33.856;151.182;2023-09-19T02:41:05;35.30;44.80
20803;DHT22;10562;-33.856;151.182;2023-09-19T02:43:36;35.40;43.70
20803;DHT22;10562;-33.856;151.182;2023-09-19T02:46:06;35.50;44.00
20803;DHT22;10562;-33.856;151.182;2023-09-19T02:48:41;35.50;43.10
20803;DHT22;10562;-33.856;151.182;2023-09-19T02:51:11;35.60;43.80
20803;DHT22;10562;-33.856;151.182;2023-09-19T02:53:42;35.50;42.60
20803;DHT22;10562;-33.856;151.182;2023-09-19T02:56:15;35.40;43.70
20803;DHT22;10562;-33.856;151.182;2023-09-19T02:58:46;35.40;43.10
20803;DHT22;10562;-33.856;151.182;2023-09-19T03:01:17;35.50;42.10
20803;DHT22;10562;-33.856;151.182;2023-09-19T03:03:50;35.70;43.00
20803;DHT22;10562;-33.856;151.182;2023-09-19T03:06:21;35.70;41.30
20803;DHT22;10562;-33.856;151.182;2023-09-19T03:08:52;35.60;41.60
20803;DHT22;10562;-33.856;151.182;2023-09-19T03:11:23;35.60;42.10
20803;DHT22;10562;-33.856;151.182;2023-09-19T03:13:54;35.60;41.80
20803;DHT22;10562;-33.856;151.182;2023-09-19T03:16:25;35.50;42.60
20803;DHT22;10562;-33.856;151.182;2023-09-19T03:18:58;35.60;40.80
20803;DHT22;10562;-33.856;151.182;2023-09-19T03:21:29;35.60;40.70
20803;DHT22;10562;-33.856;151.182;2023-09-19T03:24:00;35.50;40.40
20803;DHT22;10562;-33.856;151.182;2023-09-19T03:26:31;35.60;42.00
20803;DHT22;10562;-33.856;151.182;2023-09-19T03:29:05;35.70;41.00
20803;DHT22;10562;-33.856;151.182;2023-09-19T03:31:37;35.80;41.40
20803;DHT22;10562;-33.856;151.182;2023-09-19T03:34:10;35.80;40.90
20803;DHT22;10562;-33.856;151.182;2023-09-19T03:36:41;35.80;39.80
20803;DHT22;10562;-33.856;151.182;2023-09-19T03:39:12;35.70;40.00
20803;DHT22;10562;-33.856;151.182;2023-09-19T03:41:44;35.60;40.60
20803;DHT22;10562;-33.856;151.182;2023-09-19T03:44:15;35.60;41.60
20803;DHT22;10562;-33.856;151.182;2023-09-19T03:46:45;35.80;41.70
20803;DHT22;10562;-33.856;151.182;2023-09-19T03:49:18;35.90;42.20
20803;DHT22;10562;-33.856;151.182;2023-09-19T03:51:49;35.90;42.00
20803;DHT22;10562;-33.856;151.182;2023-09-19T03:54:19;35.90;39.70
20803;DHT22;10562;-33.856;151.182;2023-09-19T03:56:50;35.90;40.30
20803;DHT22;10562;-33.856;151.182;2023-09-19T03:59:21;35.80;40.10
20803;DHT22;10562;-33.856;151.182;2023-09-19T04:01:52;35.70;39.20
20803;DHT22;10562;-33.856;151.182;2023-09-19T04:04:26;35.70;39.60
20803;DHT22;10562;-33.856;151.182;2023-09-19T04:06:57;35.70;40.00
20803;DHT22;10562;-33.856;151.182;2023-09-19T04:09:28;35.70;39.60
20803;DHT22;10562;-33.856;151.182;2023-09-19T04:11:59;35.60;39.50
20803;DHT22;10562;-33.856;151.182;2023-09-19T04:14:30;35.50;39.30
20803;DHT22;10562;-33.856;151.182;2023-09-19T04:17:01;35.50;39.20
20803;DHT22;10562;-33.856;151.182;2023-09-19T04:19:34;35.40;39.60
20803;DHT22;10562;-33.856;151.182;2023-09-19T04:22:06;35.50;39.30
20803;DHT22;10562;-33.856;151.182;2023-09-19T04:24:37;35.60;39.90
20803;DHT22;10562;-33.856;151.182;2023-09-19T04:27:07;35.60;39.90
20803;DHT22;10562;-33.856;151.182;2023-09-19T04:29:40;35.70;40.20
20803;DHT22;10562;-33.856;151.182;2023-09-19T04:32:11;35.70;40.30
20803;DHT22;10562;-33.856;151.182;2023-09-19T04:34:45;35.60;39.10
20803;DHT22;10562;-33.856;151.182;2023-09-19T04:37:17;35.60;40.00
20803;DHT22;10562;-33.856;151.182;2023-09-19T04:39:49;35.50;40.20
20803;DHT22;10562;-33.856;151.182;2023-09-19T04:42:20;35.50;38.70
20803;DHT22;10562;-33.856;151.182;2023-09-19T04:44:52;35.50;40.70
20803;DHT22;10562;-33.856;151.182;2023-09-19T04:47:23;35.50;39.00
20803;DHT22;10562;-33.856;151.182;2023-09-19T04:49:56;35.60;39.30
20803;DHT22;10562;-33.856;151.182;2023-09-19T04:52:27;35.70;40.80
20803;DHT22;10562;-33.856;151.182;2023-09-19T04:54:58;35.50;48.70
20803;DHT22;10562;-33.856;151.182;2023-09-19T04:57:30;35.10;51.20
20803;DHT22;10562;-33.856;151.182;2023-09-19T05:00:01;34.70;53.70
20803;DHT22;10562;-33.856;151.182;2023-09-19T05:02:34;34.60;54.20
20803;DHT22;10562;-33.856;151.182;2023-09-19T05:05:08;34.50;53.50
20803;DHT22;10562;-33.856;151.182;2023-09-19T05:07:42;34.30;54.30
20803;DHT22;10562;-33.856;151.182;2023-09-19T05:10:12;34.00;57.20
20803;DHT22;10562;-33.856;151.182;2023-09-19T05:12:46;33.60;59.00
20803;DHT22;10562;-33.856;151.182;2023-09-19T05:15:19;33.50;61.60
20803;DHT22;10562;-33.856;151.182;2023-09-19T05:17:50;33.20;63.60
20803;DHT22;10562;-33.856;151.182;2023-09-19T05:20:24;33.10;66.90
20803;DHT22;10562;-33.856;151.182;2023-09-19T05:23:00;33.00;71.00
20803;DHT22;10562;-33.856;151.182;2023-09-19T05:25:33;32.90;73.20
20803;DHT22;10562;-33.856;151.182;2023-09-19T05:28:06;32.90;74.90
20803;DHT22;10562;-33.856;151.182;2023-09-19T05:30:38;33.00;75.30
20803;DHT22;10562;-33.856;151.182;2023-09-19T05:33:10;32.90;75.30
20803;DHT22;10562;-33.856;151.182;2023-09-19T05:35:43;32.90;77.20
20803;DHT22;10562;-33.856;151.182;2023-09-19T05:38:14;33.00;78.70
20803;DHT22;10562;-33.856;151.182;2023-09-19T05:40:46;32.90;80.10
20803;DHT22;10562;-33.856;151.182;2023-09-19T05:43:17;32.80;82.00
20803;DHT22;10562;-33.856;151.182;2023-09-19T05:45:48;32.50;84.10
20803;DHT22;10562;-33.856;151.182;2023-09-19T05:48:19;32.10;88.30
20803;DHT22;10562;-33.856;151.182;2023-09-19T05:50:52;32.10;89.50
20803;DHT22;10562;-33.856;151.182;2023-09-19T05:53:23;32.20;89.90
20803;DHT22;10562;-33.856;151.182;2023-09-19T05:55:54;31.90;90.00
20803;DHT22;10562;-33.856;151.182;2023-09-19T05:58:24;32.20;90.90
20803;DHT22;10562;-33.856;151.182;2023-09-19T06:00:55;32.30;90.50
20803;DHT22;10562;-33.856;151.182;2023-09-19T06:03:27;32.40;90.60
20803;DHT22;10562;-33.856;151.182;2023-09-19T06:06:00;32.50;90.10
20803;DHT22;10562;-33.856;151.182;2023-09-19T06:08:32;32.50;90.40
20803;DHT22;10562;-33.856;151.182;2023-09-19T06:11:03;32.70;88.20
20803;DHT22;10562;-33.856;151.182;2023-09-19T06:13:35;32.50;87.90
20803;DHT22;10562;-33.856;151.182;2023-09-19T06:16:07;32.50;87.20
20803;DHT22;10562;-33.856;151.182;2023-09-19T06:18:38;32.70;85.50
20803;DHT22;10562;-33.856;151.182;2023-09-19T06:21:11;32.70;86.20
20803;DHT22;10562;-33.856;151.182;2023-09-19T06:23:41;32.60;87.30
20803;DHT22;10562;-33.856;151.182;2023-09-19T06:26:12;31.80;89.20
20803;DHT22;10562;-33.856;151.182;2023-09-19T06:28:43;31.50;91.10
20803;DHT22;10562;-33.856;151.182;2023-09-19T06:31:14;31.70;90.90
20803;DHT22;10562;-33.856;151.182;2023-09-19T06:33:45;31.50;90.50
20803;DHT22;10562;-33.856;151.182;2023-09-19T06:36:17;31.50;90.80
20803;DHT22;10562;-33.856;151.182;2023-09-19T06:38:48;30.80;91.30
20803;DHT22;10562;-33.856;151.182;2023-09-19T06:41:20;30.30;92.50
20803;DHT22;10562;-33.856;151.182;2023-09-19T06:43:52;30.00;93.00
20803;DHT22;10562;-33.856;151.182;2023-09-19T06:46:23;29.70;94.80
20803;DHT22;10562;-33.856;151.182;2023-09-19T06:48:54;29.80;95.50
20803;DHT22;10562;-33.856;151.182;2023-09-19T06:51:27;29.90;96.00
20803;DHT22;10562;-33.856;151.182;2023-09-19T06:53:58;29.90;95.90
20803;DHT22;10562;-33.856;151.182;2023-09-19T06:56:29;29.80;96.60
20803;DHT22;10562;-33.856;151.182;2023-09-19T06:59:00;29.70;97.30
20803;DHT22;10562;-33.856;151.182;2023-09-19T07:01:30;29.80;97.80
20803;DHT22;10562;-33.856;151.182;2023-09-19T07:04:01;29.40;98.60
20803;DHT22;10562;-33.856;151.182;2023-09-19T07:06:35;29.00;99.90
20803;DHT22;10562;-33.856;151.182;2023-09-19T07:09:05;28.60;99.90
20803;DHT22;10562;-33.856;151.182;2023-09-19T07:11:37;28.20;99.90
20803;DHT22;10562;-33.856;151.182;2023-09-19T07:14:08;27.80;99.90
20803;DHT22;10562;-33.856;151.182;2023-09-19T07:16:40;27.50;99.90
20803;DHT22;10562;-33.856;151.182;2023-09-19T07:19:12;27.20;99.90
20803;DHT22;10562;-33.856;151.182;2023-09-19T07:21:45;27.10;99.90
20803;DHT22;10562;-33.856;151.182;2023-09-19T07:24:18;26.90;99.90
20803;DHT22;10562;-33.856;151.182;2023-09-19T07:26:50;26.60;99.90
20803;DHT22;10562;-33.856;151.182;2023-09-19T07:29:20;26.40;99.90
20803;DHT22;10562;-33.856;151.182;2023-09-19T07:31:51;26.30;99.90
20803;DHT22;10562;-33.856;151.182;2023-09-19T07:34:22;26.20;99.90
20803;DHT22;10562;-33.856;151.182;2023-09-19T07:36:55;26.10;99.90
20803;DHT22;10562;-33.856;151.182;2023-09-19T07:39:26;26.00;99.90
20803;DHT22;10562;-33.856;151.182;2023-09-19T07:41:57;25.90;99.90
20803;DHT22;10562;-33.856;151.182;2023-09-19T07:44:29;25.70;99.90
20803;DHT22;10562;-33.856;151.182;2023-09-19T07:47:00;25.60;99.90
20803;DHT22;10562;-33.856;151.182;2023-09-19T07:49:31;25.50;99.90
20803;DHT22;10562;-33.856;151.182;2023-09-19T07:52:04;25.50;99.90
20803;DHT22;10562;-33.856;151.182;2023-09-19T07:54:35;25.40;99.90
20803;DHT22;10562;-33.856;151.182;2023-09-19T07:57:06;25.40;99.90
20803;DHT22;10562;-33.856;151.182;2023-09-19T07:59:37;25.40;99.90
20803;DHT22;10562;-33.856;151.182;2023-09-19T08:02:10;25.30;99.90
20803;DHT22;10562;-33.856;151.182;2023-09-19T08:04:43;25.30;99.90
20803;DHT22;10562;-33.856;151.182;2023-09-19T08:07:17;25.20;99.90
20803;DHT22;10562;-33.856;151.182;2023-09-19T08:09:48;25.20;99.90
20803;DHT22;10562;-33.856;151.182;2023-09-19T08:12:19;25.10;99.90
20803;DHT22;10562;-33.856;151.182;2023-09-19T08:14:52;25.20;99.90
20803;DHT22;10562;-33.856;151.182;2023-09-19T08:17:23;25.10;99.90
20803;DHT22;10562;-33.856;151.182;2023-09-19T08:19:54;24.90;99.90
20803;DHT22;10562;-33.856;151.182;2023-09-19T08:22:26;24.80;99.90
20803;DHT22;10562;-33.856;151.182;2023-09-19T08:24:58;24.80;99.90
20803;DHT22;10562;-33.856;151.182;2023-09-19T08:27:29;24.90;99.90
20803;DHT22;10562;-33.856;151.182;2023-09-19T08:30:00;24.90;99.90
20803;DHT22;10562;-33.856;151.182;2023-09-19T08:32:31;24.70;99.90
20803;DHT22;10562;-33.856;151.182;2023-09-19T08:35:02;24.80;99.90
20803;DHT22;10562;-33.856;151.182;2023-09-19T08:37:35;24.80;99.90
20803;DHT22;10562;-33.856;151.182;2023-09-19T08:40:06;24.80;99.90
20803;DHT22;10562;-33.856;151.182;2023-09-19T08:42:52;24.80;99.90
20803;DHT22;10562;-33.856;151.182;2023-09-19T08:45:23;24.90;99.90
20803;DHT22;10562;-33.856;151.182;2023-09-19T08:48:06;24.80;99.90
20803;DHT22;10562;-33.856;151.182;2023-09-19T08:50:47;24.80;99.90
20803;DHT22;10562;-33.856;151.182;2023-09-19T08:53:34;24.80;99.90
20803;DHT22;10562;-33.856;151.182;2023-09-19T08:56:10;24.70;99.90
20803;DHT22;10562;-33.856;151.182;2023-09-19T08:58:46;24.70;99.90
20803;DHT22;10562;-33.856;151.182;2023-09-19T09:01:19;24.60;99.90
20803;DHT22;10562;-33.856;151.182;2023-09-19T09:03:53;24.50;99.90
20803;DHT22;10562;-33.856;151.182;2023-09-19T09:06:25;24.50;99.90
20803;DHT22;10562;-33.856;151.182;2023-09-19T09:08:58;24.50;99.90
20803;DHT22;10562;-33.856;151.182;2023-09-19T09:11:29;24.40;99.90
20803;DHT22;10562;-33.856;151.182;2023-09-19T09:14:00;24.30;99.90
20803;DHT22;10562;-33.856;151.182;2023-09-19T09:16:31;24.00;99.90
20803;DHT22;10562;-33.856;151.182;2023-09-19T09:19:02;23.90;99.90
20803;DHT22;10562;-33.856;151.182;2023-09-19T09:21:33;23.70;99.90
20803;DHT22;10562;-33.856;151.182;2023-09-19T09:24:28;23.50;99.90
20803;DHT22;10562;-33.856;151.182;2023-09-19T09:27:02;23.40;99.90
20803;DHT22;10562;-33.856;151.182;2023-09-19T09:29:43;23.20;99.90
20803;DHT22;10562;-33.856;151.182;2023-09-19T09:32:22;23.10;99.90
20803;DHT22;10562;-33.856;151.182;2023-09-19T09:34:54;23.10;99.90
20803;DHT22;10562;-33.856;151.182;2023-09-19T09:37:25;23.00;99.90
20803;DHT22;10562;-33.856;151.182;2023-09-19T09:40:00;22.90;99.90
20803;DHT22;10562;-33.856;151.182;2023-09-19T09:42:47;22.80;99.90
20803;DHT22;10562;-33.856;151.182;2023-09-19T09:45:20;22.60;99.90
20803;DHT22;10562;-33.856;151.182;2023-09-19T09:47:59;22.60;99.90
20803;DHT22;10562;-33.856;151.182;2023-09-19T09:50:32;22.50;99.90
20803;DHT22;10562;-33.856;151.182;2023-09-19T09:53:22;22.40;99.90
20803;DHT22;10562;-33.856;151.182;2023-09-19T09:56:02;22.30;99.90
20803;DHT22;10562;-33.856;151.182;2023-09-19T09:58:34;22.10;99.90
20803;DHT22;10562;-33.856;151.182;2023-09-19T10:01:05;22.00;99.90
20803;DHT22;10562;-33.856;151.182;2023-09-19T10:03:39;22.00;99.90
20803;DHT22;10562;-33.856;151.182;2023-09-19T10:06:12;21.80;99.90
20803;DHT22;10562;-33.856;151.182;2023-09-19T10:09:06;21.70;99.90
20803;DHT22;10562;-33.856;151.182;2023-09-19T10:11:47;21.70;99.90
20803;DHT22;10562;-33.856;151.182;2023-09-19T10:14:27;21.60;99.90
20803;DHT22;10562;-33.856;151.182;2023-09-19T10:17:00;21.60;99.90
20803;DHT22;10562;-33.856;151.182;2023-09-19T10:19:43;21.50;99.90
20803;DHT22;10562;-33.856;151.182;2023-09-19T10:22:17;21.60;99.90
20803;DHT22;10562;-33.856;151.182;2023-09-19T10:24:51;21.50;99.90
20803;DHT22;10562;-33.856;151.182;2023-09-19T10:27:27;21.50;99.90
20803;DHT22;10562;-33.856;151.182;2023-09-19T10:30:06;21.50;99.90
20803;DHT22;10562;-33.856;151.182;2023-09-19T10:32:41;21.40;99.90
20803;DHT22;10562;-33.856;151.182;2023-09-19T10:35:16;21.40;99.90
20803;DHT22;10562;-33.856;151.182;2023-09-19T10:37:49;21.60;99.90
20803;DHT22;10562;-33.856;151.182;2023-09-19T10:40:21;21.60;99.90
20803;DHT22;10562;-33.856;151.182;2023-09-19T10:43:03;21.60;99.90
20803;DHT22;10562;-33.856;151.182;2023-09-19T10:45:35;21.60;99.90
20803;DHT22;10562;-33.856;151.182;2023-09-19T10:48:07;21.60;99.90
20803;DHT22;10562;-33.856;151.182;2023-09-19T10:50:45;21.60;99.90
20803;DHT22;10562;-33.856;151.182;2023-09-19T10:53:18;21.40;99.90
20803;DHT22;10562;-33.856;151.182;2023-09-19T10:55:53;21.30;99.90
20803;DHT22;10562;-33.856;151.182;2023-09-19T10:58:33;21.30;99.90
20803;DHT22;10562;-33.856;151.182;2023-09-19T11:01:06;21.20;99.90
20803;DHT22;10562;-33.856;151.182;2023-09-19T11:03:40;21.10;99.90
20803;DHT22;10562;-33.856;151.182;2023-09-19T11:06:14;21.10;99.90
20803;DHT22;10562;-33.856;151.182;2023-09-19T11:08:59;21.10;99.90
20803;DHT22;10562;-33.856;151.182;2023-09-19T11:11:48;21.20;99.90
20803;DHT22;10562;-33.856;151.182;2023-09-19T11:14:42;21.10;99.90
20803;DHT22;10562;-33.856;151.182;2023-09-19T11:17:32;21.00;99.90
20803;DHT22;10562;-33.856;151.182;2023-09-19T11:20:20;20.90;99.90
20803;DHT22;10562;-33.856;151.182;2023-09-19T11:23:29;20.80;99.90
20803;DHT22;10562;-33.856;151.182;2023-09-19T11:26:02;20.70;99.90
20803;DHT22;10562;-33.856;151.182;2023-09-19T11:28:34;20.60;99.90
20803;DHT22;10562;-33.856;151.182;2023-09-19T11:34:42;20.50;99.90
20803;DHT22;10562;-33.856;151.182;2023-09-19T11:40:38;20.50;99.90
20803;DHT22;10562;-33.856;151.182;2023-09-19T11:43:32;20.60;99.90
20803;DHT22;10562;-33.856;151.182;2023-09-19T11:46:05;20.60;99.90
20803;DHT22;10562;-33.856;151.182;2023-09-19T11:48:38;20.70;99.90
20803;DHT22;10562;-33.856;151.182;2023-09-19T11:51:18;20.80;99.90
20803;DHT22;10562;-33.856;151.182;2023-09-19T11:53:51;20.80;99.90
20803;DHT22;10562;-33.856;151.182;2023-09-19T11:56:22;20.80;99.90
20803;DHT22;10562;-33.856;151.182;2023-09-19T11:58:56;20.80;99.90
20803;DHT22;10562;-33.856;151.182;2023-09-19T12:01:31;20.80;99.90
20803;DHT22;10562;-33.856;151.182;2023-09-19T12:04:03;20.70;99.90
20803;DHT22;10562;-33.856;151.182;2023-09-19T12:06:36;20.70;99.90
20803;DHT22;10562;-33.856;151.182;2023-09-19T12:09:14;20.60;99.90
20803;DHT22;10562;-33.856;151.182;2023-09-19T12:11:45;20.60;99.90
20803;DHT22;10562;-33.856;151.182;2023-09-19T12:14:23;20.50;99.90
20803;DHT22;10562;-33.856;151.182;2023-09-19T12:16:55;20.50;99.90
20803;DHT22;10562;-33.856;151.182;2023-09-19T12:19:28;20.40;99.90
20803;DHT22;10562;-33.856;151.182;2023-09-19T12:22:02;20.40;99.90
20803;DHT22;10562;-33.856;151.182;2023-09-19T12:24:34;20.40;99.90
20803;DHT22;10562;-33.856;151.182;2023-09-19T12:27:08;20.40;99.90
20803;DHT22;10562;-33.856;151.182;2023-09-19T12:29:48;20.40;99.90
20803;DHT22;10562;-33.856;151.182;2023-09-19T12:32:35;20.40;99.90
20803;DHT22;10562;-33.856;151.182;2023-09-19T12:35:08;20.30;99.90
20803;DHT22;10562;-33.856;151.182;2023-09-19T12:37:47;20.30;99.90
20803;DHT22;10562;-33.856;151.182;2023-09-19T12:40:23;20.30;99.90
20803;DHT22;10562;-33.856;151.182;2023-09-19T12:42:56;20.30;99.90
20803;DHT22;10562;-33.856;151.182;2023-09-19T12:45:31;20.30;99.90
20803;DHT22;10562;-33.856;151.182;2023-09-19T12:48:21;20.20;99.90
20803;DHT22;10562;-33.856;151.182;2023-09-19T12:51:04;20.20;99.90
20803;DHT22;10562;-33.856;151.182;2023-09-19T12:53:38;20.20;99.90
20803;DHT22;10562;-33.856;151.182;2023-09-19T12:56:10;20.30;99.90
20803;DHT22;10562;-33.856;151.182;2023-09-19T12:58:53;20.40;99.90
20803;DHT22;10562;-33.856;151.182;2023-09-19T13:01:25;20.70;99.90
20803;DHT22;10562;-33.856;151.182;2023-09-19T13:04:16;21.00;99.90
20803;DHT22;10562;-33.856;151.182;2023-09-19T13:06:53;21.20;99.90
20803;DHT22;10562;-33.856;151.182;2023-09-19T13:09:30;21.30;99.90
20803;DHT22;10562;-33.856;151.182;2023-09-19T13:12:02;21.40;99.90
20803;DHT22;10562;-33.856;151.182;2023-09-19T13:14:34;21.60;99.90
20803;DHT22;10562;-33.856;151.182;2023-09-19T13:17:09;21.80;99.90
20803;DHT22;10562;-33.856;151.182;2023-09-19T13:19:45;22.00;99.90
20803;DHT22;10562;-33.856;151.182;2023-09-19T13:22:38;22.10;99.90
20803;DHT22;10562;-33.856;151.182;2023-09-19T13:25:13;22.10;99.90
20803;DHT22;10562;-33.856;151.182;2023-09-19T13:27:46;22.20;99.90
20803;DHT22;10562;-33.856;151.182;2023-09-19T13:30:19;22.30;99.90
20803;DHT22;10562;-33.856;151.182;2023-09-19T13:32:50;22.50;99.90
20803;DHT22;10562;-33.856;151.182;2023-09-19T13:35:21;22.60;99.90
20803;DHT22;10562;-33.856;151.182;2023-09-19T13:37:52;22.60;99.90
20803;DHT22;10562;-33.856;151.182;2023-09-19T13:40:24;22.60;99.90
20803;DHT22;10562;-33.856;151.182;2023-09-19T13:42:58;22.50;99.90
20803;DHT22;10562;-33.856;151.182;2023-09-19T13:45:29;22.50;99.90
20803;DHT22;10562;-33.856;151.182;2023-09-19T13:48:00;22.40;99.90
20803;DHT22;10562;-33.856;151.182;2023-09-19T13:50:31;22.40;99.90
20803;DHT22;10562;-33.856;151.182;2023-09-19T13:53:02;22.40;99.90
20803;DHT22;10562;-33.856;151.182;2023-09-19T13:55:34;22.40;99.90
20803;DHT22;10562;-33.856;151.182;2023-09-19T13:58:06;22.30;99.90
20803;DHT22;10562;-33.856;151.182;2023-09-19T14:00:38;22.30;99.90
20803;DHT22;10562;-33.856;151.182;2023-09-19T14:03:09;22.30;99.90
20803;DHT22;10562;-33.856;151.182;2023-09-19T14:05:40;22.20;99.90
20803;DHT22;10562;-33.856;151.182;2023-09-19T14:08:12;22.30;99.90
20803;DHT22;10562;-33.856;151.182;2023-09-19T14:10:44;22.30;99.90
20803;DHT22;10562;-33.856;151.182;2023-09-19T14:13:15;22.20;99.90
20803;DHT22;10562;-33.856;151.182;2023-09-19T14:15:48;22.20;99.90
20803;DHT22;10562;-33.856;151.182;2023-09-19T14:18:18;22.10;99.90
20803;DHT22;10562;-33.856;151.182;2023-09-19T14:20:49;22.10;99.90
20803;DHT22;10562;-33.856;151.182;2023-09-19T14:23:21;22.10;99.90
20803;DHT22;10562;-33.856;151.182;2023-09-19T14:25:53;22.10;99.90
20803;DHT22;10562;-33.856;151.182;2023-09-19T14:28:24;22.10;99.90
20803;DHT22;10562;-33.856;151.182;2023-09-19T14:30:55;22.10;99.90
20803;DHT22;10562;-33.856;151.182;2023-09-19T14:33:26;22.10;99.90
20803;DHT22;10562;-33.856;151.182;2023-09-19T14:35:56;22.10;99.90
20803;DHT22;10562;-33.856;151.182;2023-09-19T14:38:27;22.00;99.90
20803;DHT22;10562;-33.856;151.182;2023-09-19T14:41:04;21.90;99.90
20803;DHT22;10562;-33.856;151.182;2023-09-19T14:43:34;21.90;99.90
20803;DHT22;10562;-33.856;151.182;2023-09-19T14:46:06;21.80;99.90
20803;DHT22;10562;-33.856;151.182;2023-09-19T14:48:38;21.80;99.90
20803;DHT22;10562;-33.856;151.182;2023-09-19T14:51:09;21.90;99.90
20803;DHT22;10562;-33.856;151.182;2023-09-19T14:53:40;21.90;99.90
20803;DHT22;10562;-33.856;151.182;2023-09-19T14:56:13;21.90;99.90
20803;DHT22;10562;-33.856;151.182;2023-09-19T14:58:46;21.90;99.90
20803;DHT22;10562;-33.856;151.182;2023-09-19T15:01:17;21.70;99.90
20803;DHT22;10562;-33.856;151.182;2023-09-19T15:03:47;21.70;99.90
20803;DHT22;10562;-33.856;151.182;2023-09-19T15:06:19;21.60;99.90
20803;DHT22;10562;-33.856;151.182;2023-09-19T15:08:49;21.50;99.90
20803;DHT22;10562;-33.856;151.182;2023-09-19T15:11:22;21.50;99.90
20803;DHT22;10562;-33.856;151.182;2023-09-19T15:13:53;21.50;99.90
20803;DHT22;10562;-33.856;151.182;2023-09-19T15:16:24;21.60;99.90
20803;DHT22;10562;-33.856;151.182;2023-09-19T15:18:55;21.60;99.90
20803;DHT22;10562;-33.856;151.182;2023-09-19T15:21:26;21.70;99.90
20803;DHT22;10562;-33.856;151.182;2023-09-19T15:23:56;21.70;99.90
20803;DHT22;10562;-33.856;151.182;2023-09-19T15:26:29;21.70;99.90
20803;DHT22;10562;-33.856;151.182;2023-09-19T15:29:00;21.60;99.90
20803;DHT22;10562;-33.856;151.182;2023-09-19T15:31:31;21.60;99.90
20803;DHT22;10562;-33.856;151.182;2023-09-19T15:34:04;21.50;99.90